Irvine, California
Current Conditions -  °F | °C
As of 1:10 AM on Monday 20 Oct 2014 (Local Time) from KSNA Reporting Station
Broken Clouds Broken Clouds  
Wind Chill: 70°   Ceiling: 1300
Heat Index: 70°   Visibility: 10mi
Dew Point: 61°   Wind: 0mph
Humidity: 73%   Direction: NA
Pressure: 29.89"   Gusts: NA
Location:  33.69°N, 117.82°W
Report Text: KSNA 200810Z AUTO 00000KT 10SM BKN013 21/16 A2989 RMK AO2 TSNO $
Loading
Personal Weather Stations






























Interactive Weather Map
Tropical Storm Tracking
New forecast layout! Learn more

10-Day Weather Forecast

Advertisements
Track Severe Weather on mobile